sensor_id;sensor_type;location;lat;lon;timestamp;P1;durP1;ratioP1;P2;durP2;ratioP2
3777;SDS011;1904;50.076;8.660;2022-07-01T00:00:24;3.13;;;1.00;;
3777;SDS011;1904;50.076;8.660;2022-07-01T00:02:49;0.70;;;0.70;;
3777;SDS011;1904;50.076;8.660;2022-07-01T00:05:15;2.30;;;1.00;;
3777;SDS011;1904;50.076;8.660;2022-07-01T00:07:41;3.90;;;0.80;;
3777;SDS011;1904;50.076;8.660;2022-07-01T00:10:06;1.33;;;1.00;;
3777;SDS011;1904;50.076;8.660;2022-07-01T00:12:32;0.80;;;0.80;;
3777;SDS011;1904;50.076;8.660;2022-07-01T00:14:58;0.93;;;0.83;;
3777;SDS011;1904;50.076;8.660;2022-07-01T00:17:24;0.87;;;0.80;;
3777;SDS011;1904;50.076;8.660;2022-07-01T00:19:49;0.90;;;0.60;;
3777;SDS011;1904;50.076;8.660;2022-07-01T00:22:18;0.90;;;0.80;;
3777;SDS011;1904;50.076;8.660;2022-07-01T00:24:43;0.80;;;0.80;;
3777;SDS011;1904;50.076;8.660;2022-07-01T00:27:11;0.80;;;0.80;;
3777;SDS011;1904;50.076;8.660;2022-07-01T00:29:38;0.80;;;0.80;;
3777;SDS011;1904;50.076;8.660;2022-07-01T00:32:03;2.50;;;1.00;;
3777;SDS011;1904;50.076;8.660;2022-07-01T00:34:29;0.83;;;0.80;;
3777;SDS011;1904;50.076;8.660;2022-07-01T00:36:55;1.00;;;0.90;;
3777;SDS011;1904;50.076;8.660;2022-07-01T00:39:20;1.10;;;1.00;;
3777;SDS011;1904;50.076;8.660;2022-07-01T00:41:46;1.00;;;0.90;;
3777;SDS011;1904;50.076;8.660;2022-07-01T00:44:15;0.90;;;0.90;;
3777;SDS011;1904;50.076;8.660;2022-07-01T00:46:42;1.17;;;1.10;;
3777;SDS011;1904;50.076;8.660;2022-07-01T00:49:08;1.27;;;1.27;;
3777;SDS011;1904;50.076;8.660;2022-07-01T00:51:35;1.77;;;1.10;;
3777;SDS011;1904;50.076;8.660;2022-07-01T00:54:00;1.33;;;1.27;;
3777;SDS011;1904;50.076;8.660;2022-07-01T00:56:26;1.50;;;1.40;;
3777;SDS011;1904;50.076;8.660;2022-07-01T00:58:52;1.43;;;1.33;;
3777;SDS011;1904;50.076;8.660;2022-07-01T01:01:19;1.50;;;1.40;;
3777;SDS011;1904;50.076;8.660;2022-07-01T01:03:47;3.73;;;1.60;;
3777;SDS011;1904;50.076;8.660;2022-07-01T01:06:12;2.97;;;1.30;;
3777;SDS011;1904;50.076;8.660;2022-07-01T01:08:38;1.87;;;1.77;;
3777;SDS011;1904;50.076;8.660;2022-07-01T01:11:04;1.50;;;1.40;;
3777;SDS011;1904;50.076;8.660;2022-07-01T01:13:31;1.60;;;1.50;;
3777;SDS011;1904;50.076;8.660;2022-07-01T01:15:56;1.97;;;1.83;;
3777;SDS011;1904;50.076;8.660;2022-07-01T01:18:22;1.70;;;1.60;;
3777;SDS011;1904;50.076;8.660;2022-07-01T01:20:47;1.50;;;1.40;;
3777;SDS011;1904;50.076;8.660;2022-07-01T01:23:13;2.57;;;1.57;;
3777;SDS011;1904;50.076;8.660;2022-07-01T01:25:39;1.80;;;1.70;;
3777;SDS011;1904;50.076;8.660;2022-07-01T01:28:05;1.60;;;1.50;;
3777;SDS011;1904;50.076;8.660;2022-07-01T01:30:30;1.70;;;1.60;;
3777;SDS011;1904;50.076;8.660;2022-07-01T01:32:56;1.67;;;1.57;;
3777;SDS011;1904;50.076;8.660;2022-07-01T01:35:22;1.60;;;1.50;;
3777;SDS011;1904;50.076;8.660;2022-07-01T01:37:48;2.67;;;1.53;;
3777;SDS011;1904;50.076;8.660;2022-07-01T01:40:14;1.50;;;1.40;;
3777;SDS011;1904;50.076;8.660;2022-07-01T01:42:41;2.17;;;1.90;;
3777;SDS011;1904;50.076;8.660;2022-07-01T01:45:07;2.40;;;1.30;;
3777;SDS011;1904;50.076;8.660;2022-07-01T01:47:34;5.43;;;1.77;;
3777;SDS011;1904;50.076;8.660;2022-07-01T01:49:59;3.83;;;1.90;;
3777;SDS011;1904;50.076;8.660;2022-07-01T01:52:25;2.00;;;1.87;;
3777;SDS011;1904;50.076;8.660;2022-07-01T01:54:51;2.30;;;2.10;;
3777;SDS011;1904;50.076;8.660;2022-07-01T01:57:16;1.67;;;1.57;;
3777;SDS011;1904;50.076;8.660;2022-07-01T01:59:42;1.97;;;1.87;;
3777;SDS011;1904;50.076;8.660;2022-07-01T02:02:07;2.30;;;2.10;;
3777;SDS011;1904;50.076;8.660;2022-07-01T02:04:33;5.03;;;1.97;;
3777;SDS011;1904;50.076;8.660;2022-07-01T02:06:59;1.90;;;1.80;;
3777;SDS011;1904;50.076;8.660;2022-07-01T02:09:25;2.00;;;1.90;;
3777;SDS011;1904;50.076;8.660;2022-07-01T02:11:51;7.70;;;1.80;;
3777;SDS011;1904;50.076;8.660;2022-07-01T02:14:17;3.27;;;1.40;;
3777;SDS011;1904;50.076;8.660;2022-07-01T02:16:43;2.57;;;1.00;;
3777;SDS011;1904;50.076;8.660;2022-07-01T02:19:13;1.10;;;0.80;;
3777;SDS011;1904;50.076;8.660;2022-07-01T02:21:38;1.20;;;1.10;;
3777;SDS011;1904;50.076;8.660;2022-07-01T02:24:04;1.10;;;0.83;;
3777;SDS011;1904;50.076;8.660;2022-07-01T02:26:30;1.27;;;0.87;;
3777;SDS011;1904;50.076;8.660;2022-07-01T02:28:55;3.53;;;1.37;;
3777;SDS011;1904;50.076;8.660;2022-07-01T02:31:21;5.00;;;1.00;;
3777;SDS011;1904;50.076;8.660;2022-07-01T02:33:47;1.53;;;1.00;;
3777;SDS011;1904;50.076;8.660;2022-07-01T02:36:12;3.37;;;0.90;;
3777;SDS011;1904;50.076;8.660;2022-07-01T02:38:38;1.77;;;0.80;;
3777;SDS011;1904;50.076;8.660;2022-07-01T02:41:04;2.63;;;0.80;;
3777;SDS011;1904;50.076;8.660;2022-07-01T02:43:29;1.30;;;0.90;;
3777;SDS011;1904;50.076;8.660;2022-07-01T02:45:56;2.40;;;1.00;;
3777;SDS011;1904;50.076;8.660;2022-07-01T02:48:22;1.47;;;1.10;;
3777;SDS011;1904;50.076;8.660;2022-07-01T02:50:48;1.40;;;1.30;;
3777;SDS011;1904;50.076;8.660;2022-07-01T02:53:13;0.70;;;0.70;;
3777;SDS011;1904;50.076;8.660;2022-07-01T02:55:39;1.33;;;0.93;;
3777;SDS011;1904;50.076;8.660;2022-07-01T02:58:05;3.03;;;0.83;;
3777;SDS011;1904;50.076;8.660;2022-07-01T03:00:30;0.93;;;0.93;;
3777;SDS011;1904;50.076;8.660;2022-07-01T03:02:56;1.10;;;1.00;;
3777;SDS011;1904;50.076;8.660;2022-07-01T03:05:22;0.97;;;0.97;;
3777;SDS011;1904;50.076;8.660;2022-07-01T03:07:48;3.23;;;0.90;;
3777;SDS011;1904;50.076;8.660;2022-07-01T03:10:13;3.13;;;1.47;;
3777;SDS011;1904;50.076;8.660;2022-07-01T03:12:39;1.10;;;0.93;;
3777;SDS011;1904;50.076;8.660;2022-07-01T03:15:12;4.67;;;1.00;;
3777;SDS011;1904;50.076;8.660;2022-07-01T03:17:40;2.30;;;1.10;;
3777;SDS011;1904;50.076;8.660;2022-07-01T03:20:08;1.20;;;1.00;;
3777;SDS011;1904;50.076;8.660;2022-07-01T03:22:35;2.87;;;1.00;;
3777;SDS011;1904;50.076;8.660;2022-07-01T03:25:02;2.90;;;1.30;;
3777;SDS011;1904;50.076;8.660;2022-07-01T03:27:28;0.97;;;0.97;;
3777;SDS011;1904;50.076;8.660;2022-07-01T03:29:54;1.10;;;1.10;;
3777;SDS011;1904;50.076;8.660;2022-07-01T03:32:21;1.60;;;1.20;;
3777;SDS011;1904;50.076;8.660;2022-07-01T03:34:49;1.50;;;1.13;;
3777;SDS011;1904;50.076;8.660;2022-07-01T03:37:16;2.37;;;1.50;;
3777;SDS011;1904;50.076;8.660;2022-07-01T03:39:43;1.10;;;1.10;;
3777;SDS011;1904;50.076;8.660;2022-07-01T03:42:09;3.77;;;1.60;;
3777;SDS011;1904;50.076;8.660;2022-07-01T03:44:35;1.47;;;1.37;;
3777;SDS011;1904;50.076;8.660;2022-07-01T03:47:02;1.40;;;1.30;;
3777;SDS011;1904;50.076;8.660;2022-07-01T03:49:30;1.40;;;1.30;;
3777;SDS011;1904;50.076;8.660;2022-07-01T03:52:01;1.57;;;1.30;;
3777;SDS011;1904;50.076;8.660;2022-07-01T03:54:28;2.60;;;1.63;;
3777;SDS011;1904;50.076;8.660;2022-07-01T03:59:24;1.50;;;1.40;;
3777;SDS011;1904;50.076;8.660;2022-07-01T04:01:51;4.10;;;1.57;;
3777;SDS011;1904;50.076;8.660;2022-07-01T04:04:17;7.27;;;1.50;;
3777;SDS011;1904;50.076;8.660;2022-07-01T04:06:44;1.47;;;1.37;;
3777;SDS011;1904;50.076;8.660;2022-07-01T04:09:11;3.33;;;1.33;;
3777;SDS011;1904;50.076;8.660;2022-07-01T04:11:39;6.43;;;1.90;;
3777;SDS011;1904;50.076;8.660;2022-07-01T04:14:05;1.50;;;1.40;;
3777;SDS011;1904;50.076;8.660;2022-07-01T04:16:31;1.83;;;1.73;;
3777;SDS011;1904;50.076;8.660;2022-07-01T04:18:57;1.47;;;1.37;;
3777;SDS011;1904;50.076;8.660;2022-07-01T04:21:23;2.97;;;1.40;;
3777;SDS011;1904;50.076;8.660;2022-07-01T04:24:07;3.57;;;1.53;;
3777;SDS011;1904;50.076;8.660;2022-07-01T04:26:33;2.70;;;1.40;;
3777;SDS011;1904;50.076;8.660;2022-07-01T04:28:59;1.90;;;1.80;;
3777;SDS011;1904;50.076;8.660;2022-07-01T04:31:25;2.43;;;1.60;;
3777;SDS011;1904;50.076;8.660;2022-07-01T04:33:51;2.00;;;1.50;;
3777;SDS011;1904;50.076;8.660;2022-07-01T04:36:17;2.17;;;1.47;;
3777;SDS011;1904;50.076;8.660;2022-07-01T04:38:43;3.13;;;1.93;;
3777;SDS011;1904;50.076;8.660;2022-07-01T04:41:09;1.83;;;1.73;;
3777;SDS011;1904;50.076;8.660;2022-07-01T04:43:53;1.60;;;1.50;;
3777;SDS011;1904;50.076;8.660;2022-07-01T04:46:18;1.50;;;1.40;;
3777;SDS011;1904;50.076;8.660;2022-07-01T04:48:44;3.43;;;1.77;;
3777;SDS011;1904;50.076;8.660;2022-07-01T04:51:09;2.20;;;1.50;;
3777;SDS011;1904;50.076;8.660;2022-07-01T04:53:35;1.90;;;1.80;;
3777;SDS011;1904;50.076;8.660;2022-07-01T04:56:01;1.77;;;1.67;;
3777;SDS011;1904;50.076;8.660;2022-07-01T04:58:26;1.93;;;1.57;;
3777;SDS011;1904;50.076;8.660;2022-07-01T05:00:55;3.10;;;1.50;;
3777;SDS011;1904;50.076;8.660;2022-07-01T05:03:20;1.77;;;1.67;;
3777;SDS011;1904;50.076;8.660;2022-07-01T05:05:46;3.47;;;1.50;;
3777;SDS011;1904;50.076;8.660;2022-07-01T05:08:12;2.50;;;1.60;;
3777;SDS011;1904;50.076;8.660;2022-07-01T05:10:37;1.50;;;1.40;;
3777;SDS011;1904;50.076;8.660;2022-07-01T05:13:03;1.57;;;1.47;;
3777;SDS011;1904;50.076;8.660;2022-07-01T05:15:29;3.50;;;1.63;;
3777;SDS011;1904;50.076;8.660;2022-07-01T05:17:54;1.10;;;1.10;;
3777;SDS011;1904;50.076;8.660;2022-07-01T05:20:39;6.33;;;1.30;;
3777;SDS011;1904;50.076;8.660;2022-07-01T05:23:23;1.23;;;1.03;;
3777;SDS011;1904;50.076;8.660;2022-07-01T05:25:48;1.57;;;1.23;;
3777;SDS011;1904;50.076;8.660;2022-07-01T05:28:14;2.87;;;1.10;;
3777;SDS011;1904;50.076;8.660;2022-07-01T05:30:40;1.27;;;0.90;;
3777;SDS011;1904;50.076;8.660;2022-07-01T05:33:06;1.10;;;1.10;;
3777;SDS011;1904;50.076;8.660;2022-07-01T05:35:31;1.93;;;1.20;;
3777;SDS011;1904;50.076;8.660;2022-07-01T05:37:57;1.27;;;1.07;;
3777;SDS011;1904;50.076;8.660;2022-07-01T05:40:23;3.17;;;1.10;;
3777;SDS011;1904;50.076;8.660;2022-07-01T05:42:50;1.00;;;0.90;;
3777;SDS011;1904;50.076;8.660;2022-07-01T05:45:16;4.83;;;0.90;;
3777;SDS011;1904;50.076;8.660;2022-07-01T05:47:42;1.17;;;0.90;;
3777;SDS011;1904;50.076;8.660;2022-07-01T05:50:08;2.50;;;1.00;;
3777;SDS011;1904;50.076;8.660;2022-07-01T05:52:34;0.87;;;0.80;;
3777;SDS011;1904;50.076;8.660;2022-07-01T05:54:59;0.97;;;0.90;;
3777;SDS011;1904;50.076;8.660;2022-07-01T05:57:25;0.93;;;0.93;;
3777;SDS011;1904;50.076;8.660;2022-07-01T05:59:51;4.20;;;0.90;;
3777;SDS011;1904;50.076;8.660;2022-07-01T06:02:17;2.50;;;0.60;;
3777;SDS011;1904;50.076;8.660;2022-07-01T06:04:43;0.63;;;0.63;;
3777;SDS011;1904;50.076;8.660;2022-07-01T06:07:09;2.10;;;1.13;;
3777;SDS011;1904;50.076;8.660;2022-07-01T06:09:38;0.70;;;0.70;;
3777;SDS011;1904;50.076;8.660;2022-07-01T06:12:04;3.10;;;0.73;;
3777;SDS011;1904;50.076;8.660;2022-07-01T06:14:31;0.60;;;0.60;;
3777;SDS011;1904;50.076;8.660;2022-07-01T06:16:57;1.07;;;0.80;;
3777;SDS011;1904;50.076;8.660;2022-07-01T06:19:23;6.73;;;0.80;;
3777;SDS011;1904;50.076;8.660;2022-07-01T06:21:52;1.13;;;1.00;;
3777;SDS011;1904;50.076;8.660;2022-07-01T06:24:19;1.37;;;0.70;;
3777;SDS011;1904;50.076;8.660;2022-07-01T06:26:49;0.70;;;0.70;;
3777;SDS011;1904;50.076;8.660;2022-07-01T06:29:17;0.80;;;0.70;;
3777;SDS011;1904;50.076;8.660;2022-07-01T06:31:47;2.50;;;0.80;;
3777;SDS011;1904;50.076;8.660;2022-07-01T06:34:18;2.57;;;0.70;;
3777;SDS011;1904;50.076;8.660;2022-07-01T06:36:55;2.70;;;0.67;;
3777;SDS011;1904;50.076;8.660;2022-07-01T06:39:21;1.37;;;0.60;;
3777;SDS011;1904;50.076;8.660;2022-07-01T06:41:47;0.70;;;0.60;;
3777;SDS011;1904;50.076;8.660;2022-07-01T06:44:13;3.27;;;0.80;;
3777;SDS011;1904;50.076;8.660;2022-07-01T06:49:43;1.00;;;0.70;;
3777;SDS011;1904;50.076;8.660;2022-07-01T06:52:09;3.20;;;0.90;;
3777;SDS011;1904;50.076;8.660;2022-07-01T06:54:43;2.40;;;0.60;;
3777;SDS011;1904;50.076;8.660;2022-07-01T06:57:09;1.67;;;0.73;;
3777;SDS011;1904;50.076;8.660;2022-07-01T07:08:49;2.00;;;0.80;;
3777;SDS011;1904;50.076;8.660;2022-07-01T07:11:18;1.10;;;0.80;;
3777;SDS011;1904;50.076;8.660;2022-07-01T07:13:45;5.60;;;0.80;;
3777;SDS011;1904;50.076;8.660;2022-07-01T07:16:26;0.80;;;0.80;;
3777;SDS011;1904;50.076;8.660;2022-07-01T07:19:02;5.90;;;1.17;;
3777;SDS011;1904;50.076;8.660;2022-07-01T07:21:28;1.43;;;0.93;;
3777;SDS011;1904;50.076;8.660;2022-07-01T07:27:07;1.47;;;0.90;;
3777;SDS011;1904;50.076;8.660;2022-07-01T07:29:33;1.90;;;0.90;;
3777;SDS011;1904;50.076;8.660;2022-07-01T07:34:50;2.00;;;0.93;;
3777;SDS011;1904;50.076;8.660;2022-07-01T07:37:19;1.20;;;0.90;;
3777;SDS011;1904;50.076;8.660;2022-07-01T07:52:13;3.10;;;1.10;;
3777;SDS011;1904;50.076;8.660;2022-07-01T07:54:39;1.30;;;1.20;;
3777;SDS011;1904;50.076;8.660;2022-07-01T07:57:05;3.03;;;1.07;;
3777;SDS011;1904;50.076;8.660;2022-07-01T07:59:43;1.17;;;0.90;;
3777;SDS011;1904;50.076;8.660;2022-07-01T08:05:09;6.17;;;1.50;;
3777;SDS011;1904;50.076;8.660;2022-07-01T08:14:01;3.00;;;1.60;;
3777;SDS011;1904;50.076;8.660;2022-07-01T08:26:07;3.43;;;1.60;;
3777;SDS011;1904;50.076;8.660;2022-07-01T08:45:13;1.27;;;1.10;;
3777;SDS011;1904;50.076;8.660;2022-07-01T08:56:54;3.90;;;1.30;;
3777;SDS011;1904;50.076;8.660;2022-07-01T09:06:03;1.83;;;1.57;;
3777;SDS011;1904;50.076;8.660;2022-07-01T09:24:53;4.57;;;1.73;;
3777;SDS011;1904;50.076;8.660;2022-07-01T09:33:25;3.10;;;1.70;;
3777;SDS011;1904;50.076;8.660;2022-07-01T09:36:07;4.03;;;1.70;;
3777;SDS011;1904;50.076;8.660;2022-07-01T09:41:43;6.70;;;1.67;;
3777;SDS011;1904;50.076;8.660;2022-07-01T09:50:53;5.20;;;1.80;;
3777;SDS011;1904;50.076;8.660;2022-07-01T09:56:22;1.73;;;1.43;;
3777;SDS011;1904;50.076;8.660;2022-07-01T09:58:48;2.20;;;1.70;;
3777;SDS011;1904;50.076;8.660;2022-07-01T10:01:19;5.67;;;1.40;;
3777;SDS011;1904;50.076;8.660;2022-07-01T10:06:41;1.57;;;1.17;;
3777;SDS011;1904;50.076;8.660;2022-07-01T10:14:27;2.67;;;1.20;;
3777;SDS011;1904;50.076;8.660;2022-07-01T10:16:55;1.60;;;1.20;;
3777;SDS011;1904;50.076;8.660;2022-07-01T10:19:37;2.10;;;1.20;;
3777;SDS011;1904;50.076;8.660;2022-07-01T10:31:46;2.80;;;1.17;;
3777;SDS011;1904;50.076;8.660;2022-07-01T10:34:11;8.33;;;1.30;;
3777;SDS011;1904;50.076;8.660;2022-07-01T10:36:37;1.53;;;1.20;;
3777;SDS011;1904;50.076;8.660;2022-07-01T10:47:39;1.73;;;1.27;;
3777;SDS011;1904;50.076;8.660;2022-07-01T10:56:16;1.10;;;1.10;;
3777;SDS011;1904;50.076;8.660;2022-07-01T10:58:43;3.60;;;1.00;;
3777;SDS011;1904;50.076;8.660;2022-07-01T11:10:29;1.40;;;1.10;;
3777;SDS011;1904;50.076;8.660;2022-07-01T11:15:46;6.87;;;1.10;;
3777;SDS011;1904;50.076;8.660;2022-07-01T11:18:12;3.80;;;1.07;;
3777;SDS011;1904;50.076;8.660;2022-07-01T11:20:39;6.23;;;1.33;;
3777;SDS011;1904;50.076;8.660;2022-07-01T11:23:05;1.10;;;1.00;;
3777;SDS011;1904;50.076;8.660;2022-07-01T11:25:37;8.07;;;1.27;;
3777;SDS011;1904;50.076;8.660;2022-07-01T11:28:07;3.43;;;1.13;;
3777;SDS011;1904;50.076;8.660;2022-07-01T11:30:37;7.97;;;1.30;;
3777;SDS011;1904;50.076;8.660;2022-07-01T11:33:03;3.83;;;0.90;;
3777;SDS011;1904;50.076;8.660;2022-07-01T11:35:32;2.10;;;1.10;;
3777;SDS011;1904;50.076;8.660;2022-07-01T11:38:20;2.20;;;1.30;;
3777;SDS011;1904;50.076;8.660;2022-07-01T11:41:08;3.20;;;1.00;;
3777;SDS011;1904;50.076;8.660;2022-07-01T11:43:43;6.63;;;1.33;;
3777;SDS011;1904;50.076;8.660;2022-07-01T11:46:11;1.27;;;1.17;;
3777;SDS011;1904;50.076;8.660;2022-07-01T11:48:44;1.57;;;1.17;;
3777;SDS011;1904;50.076;8.660;2022-07-01T11:51:24;2.70;;;1.33;;
3777;SDS011;1904;50.076;8.660;2022-07-01T11:53:55;1.70;;;1.00;;
3777;SDS011;1904;50.076;8.660;2022-07-01T11:56:28;1.60;;;1.10;;
3777;SDS011;1904;50.076;8.660;2022-07-01T11:59:00;8.40;;;1.50;;
3777;SDS011;1904;50.076;8.660;2022-07-01T12:11:20;1.60;;;1.30;;
3777;SDS011;1904;50.076;8.660;2022-07-01T12:13:47;2.70;;;1.50;;
3777;SDS011;1904;50.076;8.660;2022-07-01T12:29:26;6.57;;;1.30;;
3777;SDS011;1904;50.076;8.660;2022-07-01T12:32:07;5.70;;;1.07;;
3777;SDS011;1904;50.076;8.660;2022-07-01T12:44:45;2.53;;;1.20;;
3777;SDS011;1904;50.076;8.660;2022-07-01T12:47:30;1.83;;;0.87;;
3777;SDS011;1904;50.076;8.660;2022-07-01T12:56:55;1.33;;;0.80;;
3777;SDS011;1904;50.076;8.660;2022-07-01T13:02:43;3.17;;;1.70;;
3777;SDS011;1904;50.076;8.660;2022-07-01T13:11:42;2.90;;;1.10;;
3777;SDS011;1904;50.076;8.660;2022-07-01T13:27:18;6.67;;;1.33;;
3777;SDS011;1904;50.076;8.660;2022-07-01T13:33:07;1.83;;;1.27;;
3777;SDS011;1904;50.076;8.660;2022-07-01T13:35:37;4.70;;;1.17;;
3777;SDS011;1904;50.076;8.660;2022-07-01T13:38:13;4.40;;;1.70;;
3777;SDS011;1904;50.076;8.660;2022-07-01T13:40:39;2.40;;;1.47;;
3777;SDS011;1904;50.076;8.660;2022-07-01T13:43:05;5.90;;;1.67;;
3777;SDS011;1904;50.076;8.660;2022-07-01T13:48:45;6.60;;;1.30;;
3777;SDS011;1904;50.076;8.660;2022-07-01T13:51:11;1.93;;;1.30;;
3777;SDS011;1904;50.076;8.660;2022-07-01T13:53:37;2.70;;;1.37;;
3777;SDS011;1904;50.076;8.660;2022-07-01T13:56:03;2.03;;;1.30;;
3777;SDS011;1904;50.076;8.660;2022-07-01T13:58:29;2.10;;;1.10;;
3777;SDS011;1904;50.076;8.660;2022-07-01T14:00:55;4.80;;;1.37;;
3777;SDS011;1904;50.076;8.660;2022-07-01T14:16:13;3.23;;;1.00;;
3777;SDS011;1904;50.076;8.660;2022-07-01T14:18:56;1.03;;;0.93;;
3777;SDS011;1904;50.076;8.660;2022-07-01T14:21:27;1.37;;;0.97;;
3777;SDS011;1904;50.076;8.660;2022-07-01T14:23:53;7.13;;;0.90;;
3777;SDS011;1904;50.076;8.660;2022-07-01T14:26:19;3.03;;;1.20;;
3777;SDS011;1904;50.076;8.660;2022-07-01T14:28:49;1.57;;;0.97;;
3777;SDS011;1904;50.076;8.660;2022-07-01T14:31:15;4.53;;;1.20;;
3777;SDS011;1904;50.076;8.660;2022-07-01T14:33:41;2.10;;;0.80;;
3777;SDS011;1904;50.076;8.660;2022-07-01T14:36:07;10.53;;;1.60;;
3777;SDS011;1904;50.076;8.660;2022-07-01T14:38:49;2.43;;;1.00;;
3777;SDS011;1904;50.076;8.660;2022-07-01T14:44:43;1.63;;;1.03;;
3777;SDS011;1904;50.076;8.660;2022-07-01T14:50:31;1.73;;;1.00;;
3777;SDS011;1904;50.076;8.660;2022-07-01T14:53:01;1.00;;;0.90;;
3777;SDS011;1904;50.076;8.660;2022-07-01T14:55:35;3.43;;;0.80;;
3777;SDS011;1904;50.076;8.660;2022-07-01T14:58:02;1.23;;;0.80;;
3777;SDS011;1904;50.076;8.660;2022-07-01T15:06:56;0.90;;;0.90;;
3777;SDS011;1904;50.076;8.660;2022-07-01T15:12:44;2.50;;;0.80;;
3777;SDS011;1904;50.076;8.660;2022-07-01T15:28:07;1.10;;;0.70;;
3777;SDS011;1904;50.076;8.660;2022-07-01T15:33:34;1.60;;;0.80;;
3777;SDS011;1904;50.076;8.660;2022-07-01T15:36:00;0.80;;;0.60;;
3777;SDS011;1904;50.076;8.660;2022-07-01T15:38:43;0.70;;;0.60;;
3777;SDS011;1904;50.076;8.660;2022-07-01T15:47:46;2.80;;;0.60;;
3777;SDS011;1904;50.076;8.660;2022-07-01T15:50:36;7.77;;;0.80;;
3777;SDS011;1904;50.076;8.660;2022-07-01T15:56:07;8.60;;;0.67;;
3777;SDS011;1904;50.076;8.660;2022-07-01T16:01:55;0.70;;;0.60;;
3777;SDS011;1904;50.076;8.660;2022-07-01T16:07:43;1.37;;;0.60;;
3777;SDS011;1904;50.076;8.660;2022-07-01T16:10:31;0.80;;;0.60;;
3777;SDS011;1904;50.076;8.660;2022-07-01T16:16:23;2.73;;;0.70;;
3777;SDS011;1904;50.076;8.660;2022-07-01T16:22:18;1.10;;;0.80;;
3777;SDS011;1904;50.076;8.660;2022-07-01T16:27:45;4.67;;;0.70;;
3777;SDS011;1904;50.076;8.660;2022-07-01T16:33:27;1.30;;;0.70;;
3777;SDS011;1904;50.076;8.660;2022-07-01T16:50:48;4.97;;;1.10;;
3777;SDS011;1904;50.076;8.660;2022-07-01T16:56:50;2.70;;;0.90;;
3777;SDS011;1904;50.076;8.660;2022-07-01T17:05:54;1.00;;;0.90;;
3777;SDS011;1904;50.076;8.660;2022-07-01T17:08:37;1.23;;;0.80;;
3777;SDS011;1904;50.076;8.660;2022-07-01T17:11:07;1.57;;;1.20;;
3777;SDS011;1904;50.076;8.660;2022-07-01T17:13:37;1.73;;;1.00;;
3777;SDS011;1904;50.076;8.660;2022-07-01T17:16:04;11.20;;;1.50;;
3777;SDS011;1904;50.076;8.660;2022-07-01T17:18:30;3.37;;;1.20;;
3777;SDS011;1904;50.076;8.660;2022-07-01T17:24:18;1.63;;;1.00;;
3777;SDS011;1904;50.076;8.660;2022-07-01T17:33:23;1.33;;;1.20;;
3777;SDS011;1904;50.076;8.660;2022-07-01T17:42:15;1.10;;;1.00;;
3777;SDS011;1904;50.076;8.660;2022-07-01T17:48:14;1.57;;;1.10;;
3777;SDS011;1904;50.076;8.660;2022-07-01T17:57:24;1.97;;;1.20;;
3777;SDS011;1904;50.076;8.660;2022-07-01T18:03:14;2.57;;;1.17;;
3777;SDS011;1904;50.076;8.660;2022-07-01T18:21:50;2.40;;;1.13;;
3777;SDS011;1904;50.076;8.660;2022-07-01T18:24:19;2.10;;;1.13;;
3777;SDS011;1904;50.076;8.660;2022-07-01T18:30:09;2.43;;;1.20;;
3777;SDS011;1904;50.076;8.660;2022-07-01T18:32:39;1.40;;;1.30;;
3777;SDS011;1904;50.076;8.660;2022-07-01T18:38:29;1.23;;;1.13;;
3777;SDS011;1904;50.076;8.660;2022-07-01T18:51:01;4.20;;;1.60;;
3777;SDS011;1904;50.076;8.660;2022-07-01T18:53:37;2.93;;;1.60;;
3777;SDS011;1904;50.076;8.660;2022-07-01T18:56:07;2.47;;;1.70;;
3777;SDS011;1904;50.076;8.660;2022-07-01T19:01:55;1.67;;;1.57;;
3777;SDS011;1904;50.076;8.660;2022-07-01T19:04:21;2.17;;;1.50;;
3777;SDS011;1904;50.076;8.660;2022-07-01T19:06:49;1.80;;;1.70;;
3777;SDS011;1904;50.076;8.660;2022-07-01T19:16:01;6.30;;;2.00;;
3777;SDS011;1904;50.076;8.660;2022-07-01T19:18:43;1.83;;;1.73;;
3777;SDS011;1904;50.076;8.660;2022-07-01T19:21:09;4.47;;;2.23;;
3777;SDS011;1904;50.076;8.660;2022-07-01T19:29:27;2.20;;;2.00;;
3777;SDS011;1904;50.076;8.660;2022-07-01T19:31:55;2.07;;;1.87;;
3777;SDS011;1904;50.076;8.660;2022-07-01T19:34:21;2.13;;;1.80;;
3777;SDS011;1904;50.076;8.660;2022-07-01T19:36:47;3.20;;;2.10;;
3777;SDS011;1904;50.076;8.660;2022-07-01T19:42:34;2.97;;;2.03;;
3777;SDS011;1904;50.076;8.660;2022-07-01T19:47:49;2.33;;;2.23;;
3777;SDS011;1904;50.076;8.660;2022-07-01T19:56:19;2.80;;;2.57;;
3777;SDS011;1904;50.076;8.660;2022-07-01T19:58:46;10.17;;;2.37;;
3777;SDS011;1904;50.076;8.660;2022-07-01T20:01:11;3.57;;;2.47;;
3777;SDS011;1904;50.076;8.660;2022-07-01T20:03:49;2.77;;;2.10;;
3777;SDS011;1904;50.076;8.660;2022-07-01T20:06:15;4.23;;;2.17;;
3777;SDS011;1904;50.076;8.660;2022-07-01T20:08:42;8.93;;;2.03;;
3777;SDS011;1904;50.076;8.660;2022-07-01T20:11:19;4.17;;;2.30;;
3777;SDS011;1904;50.076;8.660;2022-07-01T20:14:01;2.97;;;2.77;;
3777;SDS011;1904;50.076;8.660;2022-07-01T20:16:27;3.07;;;2.60;;
3777;SDS011;1904;50.076;8.660;2022-07-01T20:19:07;2.80;;;2.50;;
3777;SDS011;1904;50.076;8.660;2022-07-01T20:21:37;4.27;;;2.63;;
3777;SDS011;1904;50.076;8.660;2022-07-01T20:34:10;4.60;;;2.93;;
3777;SDS011;1904;50.076;8.660;2022-07-01T20:39:31;2.27;;;2.17;;
3777;SDS011;1904;50.076;8.660;2022-07-01T20:42:01;4.73;;;2.70;;
3777;SDS011;1904;50.076;8.660;2022-07-01T20:44:44;5.70;;;2.63;;
3777;SDS011;1904;50.076;8.660;2022-07-01T20:47:19;6.50;;;3.40;;
3777;SDS011;1904;50.076;8.660;2022-07-01T20:56:02;3.97;;;3.20;;
3777;SDS011;1904;50.076;8.660;2022-07-01T20:58:37;2.57;;;2.37;;
3777;SDS011;1904;50.076;8.660;2022-07-01T21:01:03;11.53;;;3.10;;
3777;SDS011;1904;50.076;8.660;2022-07-01T21:03:43;4.90;;;2.97;;
3777;SDS011;1904;50.076;8.660;2022-07-01T21:06:19;4.10;;;2.63;;
3777;SDS011;1904;50.076;8.660;2022-07-01T21:24:43;3.60;;;2.87;;
3777;SDS011;1904;50.076;8.660;2022-07-01T21:33:31;3.33;;;2.80;;
3777;SDS011;1904;50.076;8.660;2022-07-01T21:39:18;3.80;;;2.60;;
3777;SDS011;1904;50.076;8.660;2022-07-01T21:45:07;12.73;;;3.50;;
3777;SDS011;1904;50.076;8.660;2022-07-01T22:01:01;5.83;;;3.67;;
3777;SDS011;1904;50.076;8.660;2022-07-01T22:03:32;11.63;;;3.30;;
3777;SDS011;1904;50.076;8.660;2022-07-01T22:22:40;6.27;;;4.30;;
3777;SDS011;1904;50.076;8.660;2022-07-01T22:25:16;4.87;;;3.30;;
3777;SDS011;1904;50.076;8.660;2022-07-01T22:27:47;7.73;;;3.67;;
3777;SDS011;1904;50.076;8.660;2022-07-01T22:30:13;3.90;;;3.23;;
3777;SDS011;1904;50.076;8.660;2022-07-01T22:32:38;3.60;;;3.30;;
3777;SDS011;1904;50.076;8.660;2022-07-01T22:35:05;3.90;;;3.50;;
3777;SDS011;1904;50.076;8.660;2022-07-01T22:37:31;4.10;;;3.70;;
3777;SDS011;1904;50.076;8.660;2022-07-01T22:39:57;5.30;;;4.13;;
3777;SDS011;1904;50.076;8.660;2022-07-01T22:42:23;6.47;;;4.30;;
3777;SDS011;1904;50.076;8.660;2022-07-01T22:44:52;4.83;;;3.50;;
3777;SDS011;1904;50.076;8.660;2022-07-01T22:47:19;5.93;;;3.87;;
3777;SDS011;1904;50.076;8.660;2022-07-01T22:52:30;6.13;;;3.47;;
3777;SDS011;1904;50.076;8.660;2022-07-01T23:00:34;9.47;;;3.40;;
3777;SDS011;1904;50.076;8.660;2022-07-01T23:03:02;3.53;;;3.20;;
3777;SDS011;1904;50.076;8.660;2022-07-01T23:05:31;4.43;;;3.60;;
3777;SDS011;1904;50.076;8.660;2022-07-01T23:07:57;8.07;;;3.33;;
3777;SDS011;1904;50.076;8.660;2022-07-01T23:13:06;3.37;;;3.07;;
3777;SDS011;1904;50.076;8.660;2022-07-01T23:15:39;3.90;;;3.60;;
3777;SDS011;1904;50.076;8.660;2022-07-01T23:18:24;3.87;;;3.53;;
3777;SDS011;1904;50.076;8.660;2022-07-01T23:20:51;5.70;;;3.63;;
3777;SDS011;1904;50.076;8.660;2022-07-01T23:23:21;4.10;;;3.70;;
3777;SDS011;1904;50.076;8.660;2022-07-01T23:25:52;5.20;;;3.80;;
3777;SDS011;1904;50.076;8.660;2022-07-01T23:28:25;4.50;;;3.50;;
3777;SDS011;1904;50.076;8.660;2022-07-01T23:30:53;4.03;;;3.63;;
3777;SDS011;1904;50.076;8.660;2022-07-01T23:33:22;9.80;;;3.90;;
3777;SDS011;1904;50.076;8.660;2022-07-01T23:35:50;6.27;;;3.50;;
3777;SDS011;1904;50.076;8.660;2022-07-01T23:38:18;3.97;;;3.57;;
3777;SDS011;1904;50.076;8.660;2022-07-01T23:40:46;7.90;;;4.10;;
3777;SDS011;1904;50.076;8.660;2022-07-01T23:43:12;8.63;;;3.77;;
3777;SDS011;1904;50.076;8.660;2022-07-01T23:45:38;5.17;;;3.60;;
3777;SDS011;1904;50.076;8.660;2022-07-01T23:48:04;4.40;;;4.07;;
3777;SDS011;1904;50.076;8.660;2022-07-01T23:50:31;4.70;;;3.60;;
3777;SDS011;1904;50.076;8.660;2022-07-01T23:52:56;6.83;;;3.80;;
3777;SDS011;1904;50.076;8.660;2022-07-01T23:55:22;6.73;;;4.43;;